Hovedside
METAR-TAF:

METAR-TAF

Lufthavner :

Mendoza, Argentina

breddegrad: 32-50S, lengdegrad: 068-47W, høyde over havet: 705 m

Gjeldene værobservasjon

Denne rapporten ble laget for 23 minutter siden, klokken 15:00 UTC
Vind 10 kt fra Øst-sørøst
Temperatur 26°C
Luftfuktighet 24%
Trykk 1016 hPa
Sikt 10 km eller mer
ingen skyer under 1500 m og ingen bygeskyer

METAR: SAME 141500Z 11010KT CAVOK 26/04 Q1016

Tid: 12:23 (15:23 UTC)

Varsel

Denne rapporten ble laget for 4 timer og 23 minutter siden, klokken 11:00 UTC
Varsel gyldig fra 14. klokken 12 UTC til 15. klokken 12 UTC
Vind 5 kt fra Sør
Sikt 10 km eller mer
Få skyer i en høyde av 4000 ft
Blir
fra 14. klokken 20 UTC til 14. klokken 22 UTC
Vind 10 kt fra Sør
Sikt 10 km eller mer
Få skyer i en høyde av 4000 ft, Tårnskyer (cumulus).
Få skyer i en høyde av 5000 ft, Bygeskyer.

TAF: SAME 141100Z 1412/1512 18005KT 9999 FEW040 TX31/1420Z TN18/1510Z BECMG 1420/1422 18010KT 9999 FEW040TCU FEW050CB

Værobservasjoner og værvarsel for over 4000 flyplasser (METAR- og TAF-rapporter).

Tilgjengelige stasjoner er representert av de røde og gule prikkene på kartet.

Hold musepekeren over prikken for å se navnet på stasjonen.

Klikk så for å se værobservasjoner og -varsler.

For å forandre kartet kan du klikke på den grønne knappen med svart kryss for å zoome inn, på den grønne knappen med strek for å zoome ut, eller på de grønne pilene for å se tilstøtende kart.


METAR-TAF: